Time;durP1;ratioP1;P1;durP2;ratioP2;P2;SDS_P1;SDS_P2;PMS_P1;PMS_P2;Temp;Humidity;BMP_temperature;BMP_pressure;BME280_temperature;BME280_humidity;BME280_pressure;Samples;Min_cycle;Max_cycle;Signal;HPM_P1;HPM_P2
2022/04/01 00:01:14;;;;;;;537.51;490.35;;;;;;;18.54;44.74;98533.00;;;;-56
2022/04/01 00:04:14;;;;;;;537.39;490.42;;;;;;;18.54;44.75;98525.72;;;;-57
2022/04/01 00:07:14;;;;;;;534.01;487.05;;;;;;;18.52;44.76;98525.02;;;;-53
2022/04/01 00:10:14;;;;;;;522.18;476.64;;;;;;;18.50;44.74;98528.94;;;;-57
2022/04/01 00:13:14;;;;;;;504.87;460.87;;;;;;;18.48;44.76;98532.70;;;;-58
2022/04/01 00:16:15;;;;;;;474.55;433.48;;;;;;;18.48;44.75;98535.70;;;;-54
2022/04/01 00:19:15;;;;;;;450.59;411.69;;;;;;;18.48;44.76;98535.97;;;;-57
2022/04/01 00:22:14;;;;;;;440.69;402.48;;;;;;;18.47;44.77;98535.33;;;;-58
2022/04/01 00:25:14;;;;;;;401.57;367.29;;;;;;;18.45;44.77;98532.22;;;;-56
2022/04/01 00:28:14;;;;;;;510.35;465.85;;;;;;;18.44;44.75;98536.75;;;;-58
2022/04/01 00:31:14;;;;;;;533.85;486.51;;;;;;;18.43;44.80;98537.92;;;;-55
2022/04/01 00:34:20;;;;;;;446.54;407.65;;;;;;;18.43;44.78;98538.81;;;;-53
2022/04/01 00:37:14;;;;;;;403.16;368.63;;;;;;;18.42;44.74;98538.53;;;;-57
2022/04/01 00:40:14;;;;;;;403.45;368.87;;;;;;;18.40;44.77;98532.78;;;;-57
2022/04/01 00:43:14;;;;;;;357.97;327.83;;;;;;;18.39;44.76;98531.05;;;;-53
2022/04/01 00:46:15;;;;;;;371.40;339.99;;;;;;;18.38;44.72;98532.82;;;;-53
2022/04/01 00:49:14;;;;;;;373.79;342.17;;;;;;;18.36;44.72;98528.32;;;;-56
2022/04/01 00:52:14;;;;;;;331.22;304.12;;;;;;;18.36;44.76;98528.75;;;;-58
2022/04/01 00:55:14;;;;;;;346.34;317.67;;;;;;;18.35;44.77;98531.44;;;;-56
2022/04/01 00:58:14;;;;;;;347.41;318.49;;;;;;;18.36;44.79;98534.50;;;;-56
2022/04/01 01:01:14;;;;;;;375.82;343.99;;;;;;;18.33;44.78;98535.93;;;;-56
2022/04/01 01:04:14;;;;;;;394.69;360.86;;;;;;;18.31;44.72;98531.91;;;;-56
2022/04/01 01:07:14;;;;;;;418.11;381.96;;;;;;;18.32;44.74;98534.74;;;;-55
2022/04/01 01:10:16;;;;;;;442.89;404.38;;;;;;;18.30;44.78;98533.80;;;;-57
2022/04/01 01:13:14;;;;;;;434.80;397.04;;;;;;;18.30;44.79;98534.70;;;;-58
2022/04/01 01:16:14;;;;;;;456.52;416.97;;;;;;;18.28;44.77;98537.98;;;;-56
2022/04/01 01:19:15;;;;;;;439.78;401.64;;;;;;;18.27;44.77;98535.31;;;;-55
2022/04/01 01:22:14;;;;;;;487.71;444.88;;;;;;;18.27;44.77;98532.66;;;;-57
2022/04/01 01:25:14;;;;;;;472.16;431.09;;;;;;;18.27;44.73;98533.06;;;;-58
2022/04/01 01:28:14;;;;;;;489.28;446.58;;;;;;;18.24;44.76;98529.70;;;;-59
2022/04/01 01:31:14;;;;;;;476.20;434.53;;;;;;;18.24;44.78;98529.14;;;;-56
2022/04/01 01:34:14;;;;;;;466.11;425.59;;;;;;;18.23;44.79;98531.44;;;;-57
2022/04/01 01:37:14;;;;;;;453.19;413.91;;;;;;;18.22;44.75;98534.12;;;;-57
2022/04/01 01:40:14;;;;;;;453.91;414.35;;;;;;;18.22;44.73;98533.31;;;;-56
2022/04/01 01:43:14;;;;;;;434.22;396.59;;;;;;;18.20;44.76;98535.30;;;;-57
2022/04/01 01:46:14;;;;;;;425.33;388.25;;;;;;;18.20;44.76;98537.41;;;;-57
2022/04/01 01:49:14;;;;;;;428.97;391.78;;;;;;;18.20;44.78;98536.36;;;;-58
2022/04/01 01:55:14;;;;;;;443.56;404.91;;;;;;;18.19;44.75;98538.08;;;;-59
2022/04/01 01:58:15;;;;;;;424.33;387.46;;;;;;;18.17;44.76;98533.98;;;;-57
2022/04/01 02:01:15;;;;;;;421.95;385.34;;;;;;;18.16;44.79;98532.38;;;;-58
2022/04/01 02:04:14;;;;;;;423.62;386.76;;;;;;;18.16;44.73;98533.67;;;;-57
2022/04/01 02:07:14;;;;;;;405.56;370.71;;;;;;;18.15;44.78;98530.21;;;;-58
2022/04/01 02:10:14;;;;;;;400.97;366.53;;;;;;;18.14;44.79;98529.35;;;;-58
2022/04/01 02:13:14;;;;;;;431.27;393.94;;;;;;;18.14;44.80;98530.81;;;;-57
2022/04/01 02:16:14;;;;;;;449.99;410.74;;;;;;;18.13;44.78;98531.06;;;;-59
2022/04/01 02:19:20;;;;;;;432.37;394.84;;;;;;;18.12;44.78;98534.48;;;;-58
2022/04/01 02:22:15;;;;;;;445.53;406.49;;;;;;;18.11;44.79;98531.02;;;;-58
2022/04/01 02:25:14;;;;;;;455.49;415.67;;;;;;;18.10;44.79;98529.59;;;;-55
2022/04/01 02:28:14;;;;;;;462.97;422.58;;;;;;;18.09;44.78;98533.30;;;;-55
2022/04/01 02:31:14;;;;;;;460.67;420.57;;;;;;;18.09;44.74;98536.56;;;;-55
2022/04/01 02:34:14;;;;;;;417.49;381.28;;;;;;;18.08;44.79;98540.22;;;;-54
2022/04/01 02:37:14;;;;;;;441.79;403.19;;;;;;;18.07;44.77;98541.55;;;;-54
2022/04/01 02:40:14;;;;;;;435.37;397.71;;;;;;;18.06;44.78;98540.34;;;;-55
2022/04/01 02:43:14;;;;;;;431.47;393.90;;;;;;;18.05;44.78;98544.89;;;;-54
2022/04/01 02:46:15;;;;;;;457.73;417.99;;;;;;;18.05;44.77;98542.06;;;;-54
2022/04/01 02:49:15;;;;;;;429.86;392.62;;;;;;;18.04;44.82;98546.05;;;;-59
2022/04/01 02:52:14;;;;;;;415.60;379.83;;;;;;;18.03;44.82;98545.83;;;;-58
2022/04/01 02:55:14;;;;;;;443.07;404.74;;;;;;;18.02;44.78;98544.56;;;;-58
2022/04/01 02:58:14;;;;;;;435.89;397.93;;;;;;;18.02;44.75;98547.16;;;;-59
2022/04/01 03:01:14;;;;;;;435.86;397.81;;;;;;;18.01;44.71;98548.86;;;;-54
2022/04/01 03:04:14;;;;;;;438.90;400.77;;;;;;;18.01;44.76;98548.71;;;;-54
2022/04/01 03:07:14;;;;;;;450.40;411.20;;;;;;;18.01;44.73;98549.83;;;;-55
2022/04/01 03:10:14;;;;;;;418.92;382.49;;;;;;;18.00;44.77;98544.77;;;;-54
2022/04/01 03:13:14;;;;;;;443.93;405.23;;;;;;;17.98;44.79;98544.64;;;;-58
2022/04/01 03:16:14;;;;;;;441.85;403.31;;;;;;;17.98;44.74;98549.34;;;;-58
2022/04/01 03:19:16;;;;;;;440.21;401.79;;;;;;;17.97;44.80;98547.80;;;;-57
2022/04/01 03:22:14;;;;;;;427.85;390.67;;;;;;;17.97;44.82;98546.42;;;;-58
2022/04/01 03:25:14;;;;;;;427.29;390.14;;;;;;;17.95;44.77;98545.02;;;;-59
2022/04/01 03:28:14;;;;;;;434.79;396.96;;;;;;;17.95;44.74;98545.02;;;;-56
2022/04/01 03:31:14;;;;;;;469.04;427.95;;;;;;;17.94;44.77;98546.48;;;;-57
2022/04/01 03:34:14;;;;;;;522.67;476.42;;;;;;;17.95;44.71;98545.16;;;;-54
2022/04/01 03:37:14;;;;;;;538.23;489.97;;;;;;;17.94;44.77;98541.31;;;;-56
2022/04/01 03:40:14;;;;;;;532.17;484.61;;;;;;;17.93;44.73;98541.90;;;;-57
2022/04/01 03:43:14;;;;;;;522.99;476.31;;;;;;;17.93;44.76;98538.50;;;;-56
2022/04/01 03:46:15;;;;;;;523.37;476.63;;;;;;;17.92;44.74;98543.92;;;;-57
2022/04/01 03:49:14;;;;;;;544.17;495.07;;;;;;;17.91;44.74;98540.78;;;;-57
2022/04/01 03:52:14;;;;;;;543.47;494.73;;;;;;;17.92;44.70;98546.86;;;;-58
2022/04/01 03:55:15;;;;;;;536.87;488.85;;;;;;;17.90;44.73;98546.63;;;;-58
2022/04/01 03:58:15;;;;;;;531.07;483.43;;;;;;;17.90;44.67;98551.90;;;;-53
2022/04/01 04:01:14;;;;;;;541.67;492.66;;;;;;;17.90;44.69;98557.75;;;;-58
2022/04/01 04:04:14;;;;;;;536.02;487.81;;;;;;;17.88;44.74;98555.02;;;;-57
2022/04/01 04:07:14;;;;;;;520.46;474.25;;;;;;;17.88;44.72;98557.86;;;;-58
2022/04/01 04:10:14;;;;;;;520.01;473.40;;;;;;;17.88;44.73;98556.72;;;;-58
2022/04/01 04:13:15;;;;;;;532.27;484.23;;;;;;;17.87;44.74;98559.26;;;;-53
2022/04/01 04:16:14;;;;;;;535.55;487.21;;;;;;;17.86;44.73;98561.35;;;;-56
2022/04/01 04:19:14;;;;;;;529.81;481.93;;;;;;;17.86;44.71;98567.29;;;;-58
2022/04/01 04:22:14;;;;;;;536.21;487.61;;;;;;;17.85;44.73;98567.14;;;;-57
2022/04/01 04:25:14;;;;;;;536.79;488.13;;;;;;;17.85;44.73;98573.00;;;;-57
2022/04/01 04:28:14;;;;;;;539.43;490.49;;;;;;;17.84;44.71;98580.36;;;;-57
2022/04/01 04:31:14;;;;;;;538.66;490.20;;;;;;;17.84;44.71;98581.26;;;;-56
2022/04/01 04:34:14;;;;;;;542.22;493.51;;;;;;;17.82;44.75;98579.54;;;;-57
2022/04/01 04:37:14;;;;;;;536.83;488.57;;;;;;;17.82;44.69;98584.08;;;;-57
2022/04/01 04:40:14;;;;;;;538.45;489.79;;;;;;;17.82;44.66;98586.84;;;;-52
2022/04/01 04:43:14;;;;;;;553.13;503.07;;;;;;;17.81;44.67;98595.54;;;;-55
2022/04/01 04:46:14;;;;;;;554.52;504.23;;;;;;;17.83;44.67;98601.39;;;;-54
2022/04/01 04:49:14;;;;;;;553.69;503.73;;;;;;;17.82;44.66;98603.45;;;;-54
2022/04/01 04:52:14;;;;;;;558.95;508.49;;;;;;;17.83;44.67;98606.72;;;;-57
2022/04/01 04:55:14;;;;;;;557.20;506.80;;;;;;;17.84;44.62;98605.39;;;;-59
2022/04/01 04:58:14;;;;;;;567.49;515.95;;;;;;;17.85;44.59;98611.45;;;;-58
2022/04/01 05:01:14;;;;;;;542.48;493.45;;;;;;;17.87;44.62;98606.25;;;;-59
2022/04/01 05:04:14;;;;;;;552.42;502.36;;;;;;;17.89;44.61;98608.16;;;;-59
2022/04/01 05:07:14;;;;;;;557.55;507.24;;;;;;;17.92;44.59;98614.44;;;;-59
2022/04/01 05:10:16;;;;;;;550.51;500.88;;;;;;;17.94;44.59;98619.64;;;;-58
2022/04/01 05:13:14;;;;;;;551.72;501.77;;;;;;;17.96;44.59;98622.70;;;;-59
2022/04/01 05:16:15;;;;;;;547.65;498.23;;;;;;;17.99;44.56;98627.42;;;;-59
2022/04/01 05:19:14;;;;;;;561.27;510.88;;;;;;;18.01;44.55;98629.75;;;;-58
2022/04/01 05:22:14;;;;;;;576.57;524.91;;;;;;;18.02;44.55;98633.55;;;;-58
2022/04/01 05:25:14;;;;;;;561.61;511.09;;;;;;;18.05;44.53;98637.53;;;;-58
2022/04/01 05:28:14;;;;;;;573.32;521.64;;;;;;;18.06;44.54;98640.94;;;;-58
2022/04/01 05:31:14;;;;;;;556.57;506.53;;;;;;;18.07;44.53;98641.08;;;;-57
2022/04/01 05:34:14;;;;;;;560.92;510.59;;;;;;;18.09;44.54;98643.21;;;;-58
2022/04/01 05:37:14;;;;;;;552.83;502.99;;;;;;;18.11;44.49;98650.09;;;;-59
2022/04/01 05:40:15;;;;;;;555.17;505.36;;;;;;;18.11;44.50;98652.36;;;;-58
2022/04/01 05:43:14;;;;;;;557.58;507.51;;;;;;;18.12;44.46;98656.90;;;;-58
2022/04/01 05:46:14;;;;;;;558.66;508.30;;;;;;;18.12;44.44;98657.86;;;;-60
2022/04/01 05:49:14;;;;;;;563.36;512.73;;;;;;;18.13;44.42;98661.96;;;;-58
2022/04/01 05:52:14;;;;;;;555.58;505.43;;;;;;;18.14;44.45;98663.02;;;;-56
2022/04/01 05:55:14;;;;;;;558.86;508.57;;;;;;;18.14;44.46;98669.83;;;;-56
2022/04/01 05:58:14;;;;;;;565.81;514.77;;;;;;;18.13;44.45;98668.59;;;;-54
2022/04/01 06:01:14;;;;;;;555.48;505.29;;;;;;;18.14;44.44;98670.16;;;;-54
2022/04/01 06:04:14;;;;;;;554.67;504.61;;;;;;;18.14;44.44;98671.12;;;;-55
2022/04/01 06:07:14;;;;;;;550.96;501.29;;;;;;;18.14;44.38;98676.23;;;;-55
2022/04/01 06:10:14;;;;;;;562.03;511.41;;;;;;;18.14;44.41;98675.02;;;;-55
2022/04/01 06:13:14;;;;;;;573.89;522.31;;;;;;;18.14;44.41;98679.56;;;;-55
2022/04/01 06:16:14;;;;;;;565.15;514.13;;;;;;;18.13;44.44;98677.36;;;;-53
2022/04/01 06:19:14;;;;;;;565.41;514.45;;;;;;;18.13;44.37;98681.83;;;;-55
2022/04/01 06:22:14;;;;;;;563.24;512.51;;;;;;;18.12;44.41;98683.54;;;;-55
2022/04/01 06:25:17;;;;;;;565.54;514.51;;;;;;;18.12;44.33;98692.55;;;;-54
2022/04/01 06:28:14;;;;;;;558.10;507.77;;;;;;;18.11;44.36;98693.84;;;;-55
2022/04/01 06:31:14;;;;;;;566.59;515.69;;;;;;;18.11;44.30;98698.71;;;;-55
2022/04/01 06:34:14;;;;;;;568.61;517.58;;;;;;;18.11;44.36;98702.11;;;;-55
2022/04/01 06:37:14;;;;;;;570.99;519.63;;;;;;;18.10;44.32;98700.27;;;;-54
2022/04/01 06:40:14;;;;;;;569.23;517.81;;;;;;;18.10;44.30;98708.80;;;;-55
2022/04/01 06:43:14;;;;;;;572.41;521.18;;;;;;;18.09;44.36;98708.86;;;;-54
2022/04/01 06:46:14;;;;;;;562.88;512.23;;;;;;;18.09;44.34;98704.99;;;;-58
2022/04/01 06:49:14;;;;;;;575.31;523.67;;;;;;;18.09;44.24;98706.45;;;;-58
2022/04/01 06:52:14;;;;;;;564.86;513.83;;;;;;;18.08;44.29;98708.10;;;;-58
2022/04/01 06:55:14;;;;;;;557.26;506.82;;;;;;;18.07;44.25;98707.36;;;;-59
2022/04/01 06:58:14;;;;;;;554.40;504.02;;;;;;;18.06;44.26;98710.95;;;;-57
2022/04/01 07:01:16;;;;;;;570.55;519.17;;;;;;;18.05;44.28;98716.00;;;;-57
2022/04/01 07:04:14;;;;;;;564.85;513.71;;;;;;;18.05;44.31;98717.68;;;;-57
2022/04/01 07:07:14;;;;;;;559.68;509.07;;;;;;;18.05;44.24;98717.05;;;;-57
2022/04/01 07:10:14;;;;;;;566.75;515.32;;;;;;;18.04;44.24;98723.71;;;;-58
2022/04/01 07:13:14;;;;;;;567.23;515.53;;;;;;;18.03;44.32;98723.41;;;;-58
2022/04/01 07:16:14;;;;;;;569.17;517.41;;;;;;;18.02;44.23;98726.66;;;;-56
2022/04/01 07:19:14;;;;;;;570.20;518.29;;;;;;;18.02;44.28;98727.81;;;;-58
2022/04/01 07:22:14;;;;;;;568.41;516.85;;;;;;;18.01;44.28;98728.05;;;;-56
2022/04/01 07:25:14;;;;;;;567.34;515.65;;;;;;;18.00;44.26;98726.63;;;;-57
2022/04/01 07:28:14;;;;;;;563.06;511.81;;;;;;;17.99;44.24;98729.55;;;;-58
2022/04/01 07:34:16;;;;;;;564.87;513.16;;;;;;;17.98;44.27;98737.09;;;;-56
2022/04/01 07:37:14;;;;;;;565.83;514.20;;;;;;;17.97;44.28;98737.04;;;;-57
2022/04/01 07:40:14;;;;;;;568.71;516.75;;;;;;;17.97;44.18;98740.42;;;;-57
2022/04/01 07:43:14;;;;;;;567.15;515.26;;;;;;;17.95;44.19;98740.88;;;;-56
2022/04/01 07:46:14;;;;;;;569.31;517.47;;;;;;;17.96;44.21;98744.50;;;;-57
2022/04/01 07:49:14;;;;;;;563.86;512.39;;;;;;;17.95;44.18;98745.57;;;;-57
2022/04/01 07:52:14;;;;;;;566.25;514.42;;;;;;;17.95;44.20;98746.70;;;;-56
2022/04/01 07:55:14;;;;;;;567.31;515.40;;;;;;;17.96;44.18;98747.83;;;;-57
2022/04/01 07:58:14;;;;;;;569.10;517.12;;;;;;;17.96;44.16;98748.23;;;;-57
2022/04/01 08:01:14;;;;;;;565.47;513.54;;;;;;;17.96;44.18;98750.67;;;;-57
2022/04/01 08:04:14;;;;;;;564.69;512.97;;;;;;;17.96;44.13;98752.78;;;;-57
2022/04/01 08:07:14;;;;;;;569.45;517.45;;;;;;;17.96;44.10;98750.83;;;;-55
2022/04/01 08:10:14;;;;;;;565.47;513.77;;;;;;;17.96;44.11;98758.94;;;;-55
2022/04/01 08:13:14;;;;;;;566.63;514.79;;;;;;;17.96;44.12;98763.13;;;;-56
2022/04/01 08:16:14;;;;;;;566.60;514.95;;;;;;;17.96;44.10;98762.58;;;;-54
2022/04/01 08:19:14;;;;;;;565.43;513.44;;;;;;;17.87;42.53;98771.20;;;;-54
2022/04/01 08:22:14;;;;;;;528.10;479.49;;;;;;;17.82;41.91;98773.10;;;;-55
2022/04/01 08:25:15;;;;;;;523.59;475.03;;;;;;;17.74;42.36;98774.20;;;;-55
2022/04/01 08:28:14;;;;;;;523.46;475.23;;;;;;;17.73;42.91;98781.33;;;;-55
2022/04/01 08:31:14;;;;;;;510.45;463.64;;;;;;;17.74;43.16;98783.11;;;;-57
2022/04/01 08:34:14;;;;;;;245.50;226.21;;;;;;;17.75;43.18;98793.40;;;;-59
2022/04/01 08:37:14;;;;;;;414.32;378.64;;;;;;;17.76;43.18;98795.22;;;;-55
2022/04/01 08:40:14;;;;;;;343.44;314.67;;;;;;;17.77;43.32;98800.73;;;;-57
2022/04/01 08:43:14;;;;;;;326.41;299.28;;;;;;;17.78;43.39;98803.23;;;;-57
2022/04/01 08:46:14;;;;;;;482.91;440.11;;;;;;;17.79;43.52;98806.95;;;;-54
2022/04/01 08:49:14;;;;;;;510.57;463.80;;;;;;;17.74;43.02;98805.78;;;;-56
2022/04/01 08:52:14;;;;;;;518.39;470.88;;;;;;;17.77;43.84;98809.14;;;;-56
2022/04/01 08:55:14;;;;;;;526.24;477.71;;;;;;;17.81;43.80;98810.96;;;;-58
2022/04/01 08:58:16;;;;;;;527.21;478.49;;;;;;;17.84;44.07;98813.95;;;;-56
2022/04/01 09:01:14;;;;;;;538.73;489.25;;;;;;;17.85;44.22;98819.13;;;;-56
2022/04/01 09:04:14;;;;;;;556.36;504.61;;;;;;;17.87;44.26;98826.16;;;;-55
2022/04/01 09:07:14;;;;;;;558.44;506.97;;;;;;;17.86;44.31;98824.52;;;;-59
2022/04/01 09:10:14;;;;;;;547.59;497.19;;;;;;;17.88;44.32;98828.15;;;;-57
2022/04/01 09:13:14;;;;;;;561.28;509.74;;;;;;;17.89;44.34;98823.70;;;;-63
2022/04/01 09:16:14;;;;;;;545.23;495.25;;;;;;;17.92;44.33;98825.92;;;;-64
2022/04/01 09:19:14;;;;;;;558.98;507.71;;;;;;;17.99;44.94;98830.86;;;;-57
2022/04/01 09:22:14;;;;;;;557.39;506.49;;;;;;;18.05;44.80;98834.98;;;;-61
2022/04/01 09:25:14;;;;;;;573.88;521.13;;;;;;;18.13;44.67;98839.16;;;;-54
2022/04/01 09:28:14;;;;;;;573.85;520.87;;;;;;;18.19;44.72;98838.59;;;;-53
2022/04/01 09:31:14;;;;;;;569.83;517.18;;;;;;;18.25;44.64;98844.18;;;;-56
2022/04/01 09:34:14;;;;;;;573.43;520.65;;;;;;;18.30;44.60;98846.72;;;;-55
2022/04/01 09:37:14;;;;;;;572.60;519.83;;;;;;;18.36;45.00;98844.35;;;;-51
2022/04/01 09:40:14;;;;;;;556.95;504.75;;;;;;;18.41;44.83;98852.70;;;;-53
2022/04/01 09:43:14;;;;;;;572.98;520.25;;;;;;;18.47;44.89;98858.61;;;;-57
2022/04/01 09:46:14;;;;;;;581.49;528.40;;;;;;;18.52;45.04;98858.78;;;;-57
2022/04/01 09:49:14;;;;;;;583.37;530.01;;;;;;;18.56;45.00;98857.73;;;;-53
2022/04/01 09:52:13;;;;;;;584.03;530.61;;;;;;;18.62;44.99;98865.27;;;;-58
2022/04/01 09:55:14;;;;;;;588.74;535.28;;;;;;;18.67;44.95;98863.88;;;;-59
2022/04/01 09:58:15;;;;;;;592.98;539.94;;;;;;;18.74;44.86;98864.43;;;;-58
2022/04/01 10:01:14;;;;;;;578.49;526.85;;;;;;;18.78;44.59;98870.69;;;;-51
2022/04/01 10:04:15;;;;;;;554.14;504.46;;;;;;;18.79;44.22;98871.44;;;;-51
2022/04/01 10:07:14;;;;;;;556.91;507.53;;;;;;;18.81;44.15;98872.15;;;;-55
2022/04/01 10:10:15;;;;;;;539.60;492.29;;;;;;;18.84;44.24;98878.48;;;;-55
2022/04/01 10:13:13;;;;;;;538.98;491.55;;;;;;;18.86;44.07;98877.91;;;;-51
2022/04/01 10:16:13;;;;;;;549.69;501.14;;;;;;;18.88;44.02;98873.41;;;;-51
2022/04/01 10:19:14;;;;;;;563.72;513.82;;;;;;;18.90;43.96;98877.20;;;;-51
2022/04/01 10:22:16;;;;;;;536.96;489.81;;;;;;;18.92;43.93;98884.36;;;;-51
2022/04/01 10:25:14;;;;;;;538.44;491.23;;;;;;;18.94;44.00;98883.12;;;;-51
2022/04/01 10:28:14;;;;;;;540.43;493.07;;;;;;;18.96;43.98;98879.27;;;;-51
2022/04/01 10:31:14;;;;;;;553.50;504.18;;;;;;;19.00;43.89;98886.19;;;;-51
2022/04/01 10:34:13;;;;;;;544.05;496.24;;;;;;;19.02;43.85;98888.98;;;;-51
2022/04/01 10:37:14;;;;;;;561.79;512.09;;;;;;;19.04;43.80;98887.44;;;;-51
2022/04/01 10:40:16;;;;;;;554.75;505.55;;;;;;;19.07;43.81;98889.16;;;;-56
2022/04/01 10:43:14;;;;;;;548.11;499.63;;;;;;;19.09;43.71;98890.09;;;;-56
2022/04/01 10:46:14;;;;;;;555.53;505.95;;;;;;;19.09;43.38;98889.03;;;;-58
2022/04/01 10:52:14;;;;;;;565.46;515.23;;;;;;;19.13;43.34;98894.09;;;;-61
2022/04/01 10:55:16;;;;;;;576.44;525.39;;;;;;;19.16;43.56;98902.00;;;;-61
2022/04/01 10:58:14;;;;;;;582.31;530.77;;;;;;;19.17;43.55;98906.53;;;;-58
2022/04/01 11:01:14;;;;;;;581.06;529.48;;;;;;;19.18;43.51;98909.11;;;;-60
2022/04/01 11:04:13;;;;;;;559.36;509.66;;;;;;;19.20;43.41;98909.74;;;;-58
2022/04/01 11:07:14;;;;;;;552.86;503.68;;;;;;;19.22;43.50;98913.27;;;;-58
2022/04/01 11:10:14;;;;;;;562.58;512.22;;;;;;;19.23;43.64;98911.13;;;;-60
2022/04/01 11:13:14;;;;;;;570.94;520.32;;;;;;;19.27;43.46;98916.42;;;;-61
2022/04/01 11:16:14;;;;;;;566.97;516.77;;;;;;;19.27;43.38;98919.27;;;;-56
2022/04/01 11:19:14;;;;;;;570.51;520.40;;;;;;;19.28;43.45;98917.80;;;;-56
2022/04/01 11:22:14;;;;;;;578.63;527.41;;;;;;;19.29;43.39;98925.22;;;;-56
2022/04/01 11:25:14;;;;;;;575.55;524.81;;;;;;;19.30;43.37;98925.87;;;;-50
2022/04/01 11:28:14;;;;;;;571.11;520.65;;;;;;;19.32;43.31;98928.77;;;;-49
2022/04/01 11:31:14;;;;;;;584.41;532.94;;;;;;;19.33;43.29;98931.98;;;;-50
2022/04/01 11:34:14;;;;;;;583.23;531.83;;;;;;;19.35;43.28;98936.59;;;;-51
2022/04/01 11:37:14;;;;;;;581.33;529.96;;;;;;;19.35;43.34;98934.13;;;;-52
2022/04/01 11:40:14;;;;;;;585.43;533.49;;;;;;;19.36;43.28;98938.19;;;;-50
2022/04/01 11:43:14;;;;;;;584.45;532.85;;;;;;;19.37;43.24;98941.98;;;;-50
2022/04/01 11:46:14;;;;;;;574.63;523.59;;;;;;;19.39;43.28;98950.00;;;;-56
2022/04/01 11:49:13;;;;;;;588.93;536.87;;;;;;;19.41;43.27;98951.45;;;;-56
2022/04/01 11:52:14;;;;;;;595.67;543.03;;;;;;;19.42;43.28;98956.03;;;;-54
2022/04/01 11:55:14;;;;;;;571.67;521.03;;;;;;;19.42;43.23;98952.13;;;;-55
2022/04/01 11:58:13;;;;;;;589.06;537.11;;;;;;;19.44;43.19;98953.33;;;;-56
2022/04/01 12:01:14;;;;;;;581.97;530.57;;;;;;;19.46;43.16;98955.23;;;;-56
2022/04/01 12:04:14;;;;;;;581.33;530.00;;;;;;;19.47;43.19;98952.22;;;;-53
2022/04/01 12:10:13;;;;;;;585.60;534.17;;;;;;;19.52;43.24;98957.31;;;;-50
2022/04/01 12:13:14;;;;;;;605.68;552.57;;;;;;;19.58;43.41;98957.11;;;;-51
2022/04/01 12:16:14;;;;;;;624.79;570.18;;;;;;;19.65;43.53;98953.19;;;;-51
2022/04/01 12:19:13;;;;;;;621.11;566.98;;;;;;;19.70;43.61;98952.06;;;;-50
2022/04/01 12:22:13;;;;;;;625.27;570.83;;;;;;;19.71;43.41;98957.55;;;;-53
2022/04/01 12:25:14;;;;;;;633.64;578.24;;;;;;;19.76;43.42;98960.67;;;;-57
2022/04/01 12:28:14;;;;;;;628.82;573.99;;;;;;;19.78;43.61;98961.03;;;;-52
2022/04/01 12:31:14;;;;;;;634.23;578.60;;;;;;;19.82;43.65;98959.41;;;;-52
2022/04/01 12:34:14;;;;;;;613.23;559.66;;;;;;;19.84;43.72;98962.38;;;;-56
2022/04/01 12:37:14;;;;;;;632.53;577.59;;;;;;;19.85;43.50;98963.71;;;;-56
2022/04/01 12:40:14;;;;;;;626.58;571.83;;;;;;;19.83;43.01;98960.03;;;;-51
2022/04/01 12:43:14;;;;;;;611.07;557.73;;;;;;;19.82;43.27;98963.95;;;;-55
2022/04/01 12:46:14;;;;;;;616.03;562.45;;;;;;;19.85;43.52;98969.00;;;;-56
2022/04/01 12:49:13;;;;;;;609.85;556.82;;;;;;;19.88;43.60;98968.08;;;;-56
2022/04/01 12:52:13;;;;;;;594.09;542.25;;;;;;;19.88;43.62;98969.84;;;;-57
2022/04/01 12:55:14;;;;;;;612.58;559.43;;;;;;;19.92;43.70;98970.24;;;;-60
2022/04/01 12:58:14;;;;;;;613.06;559.89;;;;;;;19.94;43.67;98973.95;;;;-59
2022/04/01 13:01:14;;;;;;;600.77;548.57;;;;;;;19.97;43.57;98977.64;;;;-57
2022/04/01 13:04:14;;;;;;;607.96;555.27;;;;;;;19.98;43.62;98976.47;;;;-52
2022/04/01 13:07:15;;;;;;;615.51;562.21;;;;;;;20.00;43.66;98976.19;;;;-51
2022/04/01 13:10:15;;;;;;;632.21;577.73;;;;;;;20.02;43.66;98973.88;;;;-56
2022/04/01 13:13:14;;;;;;;636.61;581.39;;;;;;;19.99;43.37;98978.91;;;;-57
2022/04/01 13:16:14;;;;;;;646.38;590.43;;;;;;;20.02;43.44;98980.56;;;;-57
2022/04/01 13:19:14;;;;;;;653.44;597.07;;;;;;;20.03;43.43;98977.87;;;;-63
2022/04/01 13:22:13;;;;;;;646.47;590.78;;;;;;;20.05;43.46;98984.26;;;;-52
2022/04/01 13:25:15;;;;;;;649.63;593.43;;;;;;;20.07;43.54;98987.05;;;;-56
2022/04/01 13:28:15;;;;;;;618.49;565.03;;;;;;;20.09;43.51;98988.41;;;;-53
2022/04/01 13:31:14;;;;;;;621.19;567.40;;;;;;;20.10;43.50;98992.25;;;;-57
2022/04/01 13:34:14;;;;;;;622.69;568.95;;;;;;;20.13;43.44;98990.41;;;;-53
2022/04/01 13:37:15;;;;;;;610.02;557.20;;;;;;;20.13;43.45;98993.77;;;;-53
2022/04/01 13:40:14;;;;;;;615.69;562.51;;;;;;;20.15;43.42;98993.30;;;;-53
2022/04/01 13:43:13;;;;;;;622.72;569.14;;;;;;;20.17;43.41;98995.31;;;;-51
2022/04/01 13:46:14;;;;;;;620.34;566.87;;;;;;;20.19;43.40;98996.89;;;;-54
2022/04/01 13:49:14;;;;;;;614.26;561.22;;;;;;;20.20;43.44;98998.65;;;;-53
2022/04/01 13:52:14;;;;;;;623.29;569.72;;;;;;;20.23;43.40;98993.55;;;;-52
2022/04/01 13:55:14;;;;;;;626.78;572.89;;;;;;;20.25;43.59;98994.39;;;;-56
2022/04/01 13:58:14;;;;;;;642.87;587.98;;;;;;;20.28;43.51;98998.50;;;;-53
2022/04/01 14:01:14;;;;;;;624.98;571.27;;;;;;;20.33;43.61;99000.73;;;;-50
2022/04/01 14:04:14;;;;;;;622.34;568.84;;;;;;;20.35;43.49;99003.95;;;;-53
2022/04/01 14:07:13;;;;;;;622.36;569.03;;;;;;;20.37;43.53;99010.20;;;;-53
2022/04/01 14:10:14;;;;;;;619.55;566.54;;;;;;;20.37;43.22;99011.48;;;;-52
2022/04/01 14:13:14;;;;;;;618.06;565.13;;;;;;;20.35;43.01;99017.40;;;;-52
2022/04/01 14:16:14;;;;;;;612.80;560.15;;;;;;;20.34;43.03;99017.44;;;;-52
2022/04/01 14:19:14;;;;;;;624.29;570.53;;;;;;;20.33;43.04;99021.74;;;;-52
2022/04/01 14:22:14;;;;;;;610.51;557.84;;;;;;;20.33;42.96;99025.63;;;;-54
2022/04/01 14:25:14;;;;;;;613.47;560.77;;;;;;;20.32;42.87;99029.41;;;;-55
2022/04/01 14:28:13;;;;;;;608.45;556.21;;;;;;;20.33;42.91;99028.34;;;;-52
2022/04/01 14:31:14;;;;;;;612.13;559.50;;;;;;;20.33;42.83;99036.04;;;;-52
2022/04/01 14:34:14;;;;;;;610.99;558.45;;;;;;;20.33;42.79;99035.88;;;;-55
2022/04/01 14:37:14;;;;;;;623.55;569.52;;;;;;;20.38;42.95;99037.34;;;;-55
2022/04/01 14:40:14;;;;;;;617.19;563.91;;;;;;;20.39;43.26;99042.11;;;;-51
2022/04/01 14:43:14;;;;;;;604.07;551.56;;;;;;;20.42;43.05;99043.54;;;;-50
2022/04/01 14:46:14;;;;;;;625.08;571.39;;;;;;;20.47;43.28;99048.80;;;;-52
2022/04/01 14:49:14;;;;;;;609.49;556.55;;;;;;;20.51;43.27;99053.69;;;;-57
2022/04/01 14:52:14;;;;;;;615.65;562.73;;;;;;;20.54;43.39;99053.55;;;;-54
2022/04/01 14:55:14;;;;;;;631.31;577.03;;;;;;;20.56;43.32;99057.63;;;;-53
2022/04/01 14:58:14;;;;;;;629.11;575.18;;;;;;;20.57;43.33;99060.30;;;;-54
2022/04/01 15:01:14;;;;;;;623.22;569.73;;;;;;;20.60;43.46;99057.27;;;;-58
2022/04/01 15:04:14;;;;;;;628.71;574.99;;;;;;;20.61;43.41;99067.10;;;;-53
2022/04/01 15:07:13;;;;;;;622.63;569.51;;;;;;;20.62;43.33;99066.66;;;;-48
2022/04/01 15:10:14;;;;;;;629.65;575.86;;;;;;;20.64;43.25;99077.70;;;;-48
2022/04/01 15:13:14;;;;;;;631.65;577.55;;;;;;;20.64;43.13;99075.83;;;;-50
2022/04/01 15:16:13;;;;;;;648.47;593.10;;;;;;;20.65;43.24;99081.11;;;;-57
2022/04/01 15:19:13;;;;;;;645.97;590.92;;;;;;;20.67;43.27;99085.20;;;;-59
2022/04/01 15:22:14;;;;;;;645.51;590.51;;;;;;;20.68;43.22;99087.36;;;;-56
2022/04/01 15:25:15;;;;;;;655.64;599.79;;;;;;;20.70;43.09;99088.71;;;;-50
2022/04/01 15:28:13;;;;;;;645.53;590.08;;;;;;;20.67;42.92;99089.19;;;;-49
2022/04/01 15:31:14;;;;;;;650.85;595.26;;;;;;;20.71;42.84;99092.05;;;;-49
2022/04/01 15:34:14;;;;;;;649.95;594.46;;;;;;;20.74;42.92;99091.81;;;;-54
2022/04/01 15:37:15;;;;;;;652.93;597.17;;;;;;;20.76;42.94;99093.91;;;;-53
2022/04/01 15:40:15;;;;;;;647.90;592.65;;;;;;;20.79;42.91;99099.52;;;;-55
2022/04/01 15:43:14;;;;;;;648.07;592.64;;;;;;;20.80;42.92;99100.66;;;;-57
2022/04/01 15:46:15;;;;;;;639.66;585.05;;;;;;;20.84;42.91;99099.03;;;;-55
2022/04/01 15:49:14;;;;;;;631.51;577.71;;;;;;;20.84;42.91;99103.48;;;;-51
2022/04/01 15:52:14;;;;;;;633.62;579.59;;;;;;;20.86;42.91;99105.48;;;;-55
2022/04/01 15:55:14;;;;;;;637.01;582.87;;;;;;;20.88;42.87;99110.02;;;;-56
2022/04/01 15:58:14;;;;;;;646.59;591.45;;;;;;;20.89;42.85;99110.95;;;;-56
2022/04/01 16:01:14;;;;;;;645.28;590.69;;;;;;;20.88;42.94;99112.70;;;;-52
2022/04/01 16:04:14;;;;;;;647.41;592.44;;;;;;;20.90;42.93;99116.82;;;;-52
2022/04/01 16:07:15;;;;;;;650.47;595.37;;;;;;;20.91;42.92;99120.67;;;;-54
2022/04/01 16:10:14;;;;;;;655.14;599.67;;;;;;;20.93;42.93;99123.25;;;;-57
2022/04/01 16:13:14;;;;;;;672.79;616.09;;;;;;;20.92;42.91;99125.16;;;;-53